sensor_id;sensor_type;location;lat;lon;timestamp;pressure;altitude;pressure_sealevel;temperature;humidity
54459;BME280;40368;49.350;8.152;2024-01-10T00:00:46;1012.2;;;8.53;30.17
54459;BME280;40368;49.350;8.152;2024-01-10T00:01:46;1012.2;;;8.49;30.13
54459;BME280;40368;49.350;8.152;2024-01-10T00:02:46;1012.2;;;8.54;30.88
54459;BME280;40368;49.350;8.152;2024-01-10T00:03:46;1012.2;;;8.62;30.16
54459;BME280;40368;49.350;8.152;2024-01-10T00:04:46;1012.1;;;8.66;30.16
54459;BME280;40368;49.350;8.152;2024-01-10T00:05:46;1012.2;;;8.71;30.62
54459;BME280;40368;49.350;8.152;2024-01-10T00:06:46;1012.2;;;8.72;29.8
54459;BME280;40368;49.350;8.152;2024-01-10T00:07:46;1012.1;;;8.68;29.62
54459;BME280;40368;49.350;8.152;2024-01-10T00:08:46;1012.2;;;8.67;29.69
54459;BME280;40368;49.350;8.152;2024-01-10T00:09:47;1012.2;;;8.63;30.65
54459;BME280;40368;49.350;8.152;2024-01-10T00:10:46;1012.1;;;8.58;30.62
54459;BME280;40368;49.350;8.152;2024-01-10T00:11:46;1012.2;;;8.6;30.82
54459;BME280;40368;49.350;8.152;2024-01-10T00:12:48;1012.2;;;8.62;30.38
54459;BME280;40368;49.350;8.152;2024-01-10T00:13:46;1012.2;;;8.68;30.22
54459;BME280;40368;49.350;8.152;2024-01-10T00:14:46;1012.2;;;8.71;30.35
54459;BME280;40368;49.350;8.152;2024-01-10T00:15:46;1012.2;;;8.72;30.6
54459;BME280;40368;49.350;8.152;2024-01-10T00:16:47;1012.2;;;8.72;30.04
54459;BME280;40368;49.350;8.152;2024-01-10T00:17:46;1012.2;;;8.72;29.84
54459;BME280;40368;49.350;8.152;2024-01-10T00:18:46;1012.2;;;8.72;30.2
54459;BME280;40368;49.350;8.152;2024-01-10T00:19:46;1012.2;;;8.76;30.77
54459;BME280;40368;49.350;8.152;2024-01-10T00:20:46;1012.2;;;8.77;30.29
54459;BME280;40368;49.350;8.152;2024-01-10T00:21:46;1012.1;;;8.78;30.34
54459;BME280;40368;49.350;8.152;2024-01-10T00:22:46;1012.1;;;8.76;30.34
54459;BME280;40368;49.350;8.152;2024-01-10T00:23:47;1012.1;;;8.74;30.35
54459;BME280;40368;49.350;8.152;2024-01-10T00:24:46;1012.1;;;8.7;30.23
54459;BME280;40368;49.350;8.152;2024-01-10T00:25:46;1012.1;;;8.67;30.7
54459;BME280;40368;49.350;8.152;2024-01-10T00:26:46;1012.1;;;8.66;30.49
54459;BME280;40368;49.350;8.152;2024-01-10T00:27:46;1012.1;;;8.63;30.76
54459;BME280;40368;49.350;8.152;2024-01-10T00:28:46;1012.1;;;8.6;30.92
54459;BME280;40368;49.350;8.152;2024-01-10T00:29:46;1012.1;;;8.56;30.32
54459;BME280;40368;49.350;8.152;2024-01-10T00:30:46;1012.1;;;8.49;30.72
54459;BME280;40368;49.350;8.152;2024-01-10T00:31:47;1012.1;;;8.39;30.53
54459;BME280;40368;49.350;8.152;2024-01-10T00:32:46;1012.1;;;8.31;30.54
54459;BME280;40368;49.350;8.152;2024-01-10T00:33:46;1012.2;;;8.26;30.53
54459;BME280;40368;49.350;8.152;2024-01-10T00:34:46;1012.1;;;8.24;31.58
54459;BME280;40368;49.350;8.152;2024-01-10T00:35:46;1012.1;;;8.25;31.37
54459;BME280;40368;49.350;8.152;2024-01-10T00:36:46;1012.1;;;8.25;31.13
54459;BME280;40368;49.350;8.152;2024-01-10T00:37:47;1012.1;;;8.26;31.37
54459;BME280;40368;49.350;8.152;2024-01-10T00:38:47;1012;;;8.26;30.93
54459;BME280;40368;49.350;8.152;2024-01-10T00:39:47;1012.1;;;8.27;30.93
54459;BME280;40368;49.350;8.152;2024-01-10T00:40:46;1012.1;;;8.29;31.2
54459;BME280;40368;49.350;8.152;2024-01-10T00:41:46;1012.1;;;8.29;30.29
54459;BME280;40368;49.350;8.152;2024-01-10T00:42:47;1012.1;;;8.3;30.51
54459;BME280;40368;49.350;8.152;2024-01-10T00:43:46;1012.1;;;8.29;30.86
54459;BME280;40368;49.350;8.152;2024-01-10T00:44:46;1012.1;;;8.33;31.46
54459;BME280;40368;49.350;8.152;2024-01-10T00:45:46;1012;;;8.39;30.59
54459;BME280;40368;49.350;8.152;2024-01-10T00:46:46;1012;;;8.39;30.74
54459;BME280;40368;49.350;8.152;2024-01-10T00:47:48;1011.9;;;8.39;30.66
54459;BME280;40368;49.350;8.152;2024-01-10T00:48:46;1011.9;;;8.39;30.56
54459;BME280;40368;49.350;8.152;2024-01-10T00:49:47;1011.9;;;8.39;30.89
54459;BME280;40368;49.350;8.152;2024-01-10T00:50:46;1011.9;;;8.35;30.85
54459;BME280;40368;49.350;8.152;2024-01-10T00:51:46;1011.9;;;8.42;30.36
54459;BME280;40368;49.350;8.152;2024-01-10T00:52:47;1011.9;;;8.43;29.76
54459;BME280;40368;49.350;8.152;2024-01-10T00:53:47;1011.9;;;8.47;31.26
54459;BME280;40368;49.350;8.152;2024-01-10T00:54:46;1011.9;;;8.56;30.93
54459;BME280;40368;49.350;8.152;2024-01-10T00:55:46;1011.9;;;8.59;30.51
54459;BME280;40368;49.350;8.152;2024-01-10T00:56:46;1011.9;;;8.62;30.22
54459;BME280;40368;49.350;8.152;2024-01-10T00:57:46;1011.9;;;8.6;30.15
54459;BME280;40368;49.350;8.152;2024-01-10T00:58:47;1011.9;;;8.6;29.93
54459;BME280;40368;49.350;8.152;2024-01-10T00:59:46;1012;;;8.59;30.62
54459;BME280;40368;49.350;8.152;2024-01-10T01:00:46;1012;;;8.58;29.59
54459;BME280;40368;49.350;8.152;2024-01-10T01:01:46;1011.9;;;8.56;29.67
54459;BME280;40368;49.350;8.152;2024-01-10T01:02:46;1012;;;8.55;30.26
54459;BME280;40368;49.350;8.152;2024-01-10T01:03:46;1012;;;8.57;29.72
54459;BME280;40368;49.350;8.152;2024-01-10T01:04:46;1012;;;8.6;30.1
54459;BME280;40368;49.350;8.152;2024-01-10T01:05:46;1012;;;8.59;30.24
54459;BME280;40368;49.350;8.152;2024-01-10T01:06:46;1012;;;8.64;30.58
54459;BME280;40368;49.350;8.152;2024-01-10T01:07:46;1012;;;8.67;29.95
54459;BME280;40368;49.350;8.152;2024-01-10T01:08:46;1012.1;;;8.72;29.62
54459;BME280;40368;49.350;8.152;2024-01-10T01:09:46;1012.1;;;8.72;30.35
54459;BME280;40368;49.350;8.152;2024-01-10T01:10:46;1012;;;8.72;30.77
54459;BME280;40368;49.350;8.152;2024-01-10T01:11:47;1012.1;;;8.72;29.87
54459;BME280;40368;49.350;8.152;2024-01-10T01:12:46;1012;;;8.68;29.6
54459;BME280;40368;49.350;8.152;2024-01-10T01:13:46;1012.1;;;8.7;30.14
54459;BME280;40368;49.350;8.152;2024-01-10T01:14:46;1012.1;;;8.68;30.12
54459;BME280;40368;49.350;8.152;2024-01-10T01:15:47;1012;;;8.71;30.68
54459;BME280;40368;49.350;8.152;2024-01-10T01:16:46;1012.1;;;8.75;30.12
54459;BME280;40368;49.350;8.152;2024-01-10T01:17:46;1012.1;;;8.78;29.65
54459;BME280;40368;49.350;8.152;2024-01-10T01:18:46;1012.1;;;8.8;30.12
54459;BME280;40368;49.350;8.152;2024-01-10T01:19:46;1012.1;;;8.8;28.78
54459;BME280;40368;49.350;8.152;2024-01-10T01:20:46;1012.1;;;8.74;29
54459;BME280;40368;49.350;8.152;2024-01-10T01:21:46;1012;;;8.72;29.66
54459;BME280;40368;49.350;8.152;2024-01-10T01:22:47;1012;;;8.68;29.84
54459;BME280;40368;49.350;8.152;2024-01-10T01:23:46;1012;;;8.67;30.09
54459;BME280;40368;49.350;8.152;2024-01-10T01:24:46;1012.1;;;8.64;30.51
54459;BME280;40368;49.350;8.152;2024-01-10T01:25:46;1012.1;;;8.66;30.16
54459;BME280;40368;49.350;8.152;2024-01-10T01:26:46;1012.1;;;8.64;30.59
54459;BME280;40368;49.350;8.152;2024-01-10T01:27:46;1012.1;;;8.6;29.84
54459;BME280;40368;49.350;8.152;2024-01-10T01:28:46;1012.1;;;8.56;30.46
54459;BME280;40368;49.350;8.152;2024-01-10T01:29:46;1012;;;8.5;30.03
54459;BME280;40368;49.350;8.152;2024-01-10T01:30:46;1012;;;8.39;30.22
54459;BME280;40368;49.350;8.152;2024-01-10T01:31:46;1012.1;;;8.32;30.6
54459;BME280;40368;49.350;8.152;2024-01-10T01:32:46;1012.1;;;8.24;30.87
54459;BME280;40368;49.350;8.152;2024-01-10T01:33:46;1012.1;;;8.24;30.63
54459;BME280;40368;49.350;8.152;2024-01-10T01:34:46;1012.2;;;8.22;29.98
54459;BME280;40368;49.350;8.152;2024-01-10T01:35:47;1012.2;;;8.2;30.34
54459;BME280;40368;49.350;8.152;2024-01-10T01:36:46;1012.2;;;8.2;30.37
54459;BME280;40368;49.350;8.152;2024-01-10T01:37:47;1012.2;;;8.17;29.81
54459;BME280;40368;49.350;8.152;2024-01-10T01:38:46;1012.1;;;8.13;29.72
54459;BME280;40368;49.350;8.152;2024-01-10T01:39:46;1012.1;;;8.06;30.38
54459;BME280;40368;49.350;8.152;2024-01-10T01:40:46;1012.1;;;8.07;30.53
54459;BME280;40368;49.350;8.152;2024-01-10T01:41:46;1012.1;;;8.1;30.55
54459;BME280;40368;49.350;8.152;2024-01-10T01:42:46;1012.1;;;8.21;30.87
54459;BME280;40368;49.350;8.152;2024-01-10T01:43:46;1012.1;;;8.28;30.8
54459;BME280;40368;49.350;8.152;2024-01-10T01:44:47;1012.1;;;8.35;30.51
54459;BME280;40368;49.350;8.152;2024-01-10T01:45:47;1012.1;;;8.41;30.36
54459;BME280;40368;49.350;8.152;2024-01-10T01:46:46;1012.1;;;8.35;29.54
54459;BME280;40368;49.350;8.152;2024-01-10T01:47:46;1012.1;;;8.35;30.88
54459;BME280;40368;49.350;8.152;2024-01-10T01:48:46;1012.1;;;8.38;30.38
54459;BME280;40368;49.350;8.152;2024-01-10T01:49:46;1012.1;;;8.46;30.54
54459;BME280;40368;49.350;8.152;2024-01-10T01:50:47;1012.1;;;8.55;31.05
54459;BME280;40368;49.350;8.152;2024-01-10T01:51:46;1012;;;8.58;30.11
54459;BME280;40368;49.350;8.152;2024-01-10T01:52:46;1012;;;8.63;30.55
54459;BME280;40368;49.350;8.152;2024-01-10T01:53:46;1012;;;8.66;30.08
54459;BME280;40368;49.350;8.152;2024-01-10T01:54:46;1012;;;8.64;30.34
54459;BME280;40368;49.350;8.152;2024-01-10T01:55:47;1012;;;8.66;30.02
54459;BME280;40368;49.350;8.152;2024-01-10T01:56:47;1012;;;8.68;29.59
54459;BME280;40368;49.350;8.152;2024-01-10T01:57:46;1012;;;8.68;30.01
54459;BME280;40368;49.350;8.152;2024-01-10T01:58:46;1012.1;;;8.67;29.36
54459;BME280;40368;49.350;8.152;2024-01-10T01:59:46;1012;;;8.63;29.86
54459;BME280;40368;49.350;8.152;2024-01-10T02:00:46;1012.1;;;8.6;30.34
54459;BME280;40368;49.350;8.152;2024-01-10T02:01:46;1012;;;8.68;30.62
54459;BME280;40368;49.350;8.152;2024-01-10T02:02:46;1012.1;;;8.8;30.06
54459;BME280;40368;49.350;8.152;2024-01-10T02:03:46;1012;;;8.8;30.12
54459;BME280;40368;49.350;8.152;2024-01-10T02:04:46;1012;;;8.8;30.25
54459;BME280;40368;49.350;8.152;2024-01-10T02:05:46;1012;;;8.79;29
54459;BME280;40368;49.350;8.152;2024-01-10T02:06:46;1012;;;8.82;29.74
54459;BME280;40368;49.350;8.152;2024-01-10T02:07:46;1011.9;;;8.7;28.77
54459;BME280;40368;49.350;8.152;2024-01-10T02:08:46;1011.9;;;8.64;29.47
54459;BME280;40368;49.350;8.152;2024-01-10T02:09:46;1011.9;;;8.63;29.48
54459;BME280;40368;49.350;8.152;2024-01-10T02:10:46;1012;;;8.68;29.73
54459;BME280;40368;49.350;8.152;2024-01-10T02:11:46;1012;;;8.68;29.7
54459;BME280;40368;49.350;8.152;2024-01-10T02:13:46;1011.9;;;8.74;30.42
54459;BME280;40368;49.350;8.152;2024-01-10T02:14:46;1011.9;;;8.79;30.34
54459;BME280;40368;49.350;8.152;2024-01-10T02:15:46;1011.9;;;8.78;29.18
54459;BME280;40368;49.350;8.152;2024-01-10T02:16:46;1011.9;;;8.79;29.99
54459;BME280;40368;49.350;8.152;2024-01-10T02:17:47;1011.9;;;8.77;29.66
54459;BME280;40368;49.350;8.152;2024-01-10T02:18:47;1012;;;8.74;29.6
54459;BME280;40368;49.350;8.152;2024-01-10T02:19:46;1011.9;;;8.68;29.13
54459;BME280;40368;49.350;8.152;2024-01-10T02:20:47;1011.9;;;8.55;29.22
54459;BME280;40368;49.350;8.152;2024-01-10T02:21:46;1011.9;;;8.46;29.45
54459;BME280;40368;49.350;8.152;2024-01-10T02:22:46;1011.9;;;8.43;30.89
54459;BME280;40368;49.350;8.152;2024-01-10T02:23:46;1011.9;;;8.47;30.25
54459;BME280;40368;49.350;8.152;2024-01-10T02:24:52;1011.9;;;8.47;30.39
54459;BME280;40368;49.350;8.152;2024-01-10T02:25:46;1011.9;;;8.43;29.31
54459;BME280;40368;49.350;8.152;2024-01-10T02:26:46;1011.9;;;8.35;29.52
54459;BME280;40368;49.350;8.152;2024-01-10T02:27:46;1011.8;;;8.29;29.87
54459;BME280;40368;49.350;8.152;2024-01-10T02:28:46;1011.8;;;8.26;30.91
54459;BME280;40368;49.350;8.152;2024-01-10T02:29:46;1011.8;;;8.22;29.92
54459;BME280;40368;49.350;8.152;2024-01-10T02:30:46;1011.8;;;8.17;30.33
54459;BME280;40368;49.350;8.152;2024-01-10T02:31:46;1011.8;;;8.2;30.4
54459;BME280;40368;49.350;8.152;2024-01-10T02:32:47;1011.7;;;8.21;30.75
54459;BME280;40368;49.350;8.152;2024-01-10T02:34:46;1011.7;;;8.26;29.92
54459;BME280;40368;49.350;8.152;2024-01-10T02:35:47;1011.7;;;8.24;29.78
54459;BME280;40368;49.350;8.152;2024-01-10T02:36:47;1011.7;;;8.1;28.83
54459;BME280;40368;49.350;8.152;2024-01-10T02:37:46;1011.7;;;8.02;30.1
54459;BME280;40368;49.350;8.152;2024-01-10T02:38:46;1011.7;;;7.99;30.32
54459;BME280;40368;49.350;8.152;2024-01-10T02:39:46;1011.6;;;8.05;31.08
54459;BME280;40368;49.350;8.152;2024-01-10T02:40:46;1011.6;;;8.2;30.69
54459;BME280;40368;49.350;8.152;2024-01-10T02:41:46;1011.6;;;8.25;30.12
54459;BME280;40368;49.350;8.152;2024-01-10T02:42:47;1011.6;;;8.3;29.65
54459;BME280;40368;49.350;8.152;2024-01-10T02:43:46;1011.6;;;8.33;30.19
54459;BME280;40368;49.350;8.152;2024-01-10T02:44:46;1011.6;;;8.39;30.35
54459;BME280;40368;49.350;8.152;2024-01-10T02:45:46;1011.5;;;8.43;30.08
54459;BME280;40368;49.350;8.152;2024-01-10T02:46:46;1011.5;;;8.47;29.54
54459;BME280;40368;49.350;8.152;2024-01-10T02:47:46;1011.6;;;8.45;29.89
54459;BME280;40368;49.350;8.152;2024-01-10T02:48:46;1011.5;;;8.49;29.73
54459;BME280;40368;49.350;8.152;2024-01-10T02:49:46;1011.5;;;8.46;29.95
54459;BME280;40368;49.350;8.152;2024-01-10T02:50:46;1011.5;;;8.47;30.57
54459;BME280;40368;49.350;8.152;2024-01-10T02:51:46;1011.5;;;8.49;30.09
54459;BME280;40368;49.350;8.152;2024-01-10T02:52:46;1011.5;;;8.49;29.22
54459;BME280;40368;49.350;8.152;2024-01-10T02:53:46;1011.5;;;8.45;29.62
54459;BME280;40368;49.350;8.152;2024-01-10T02:54:46;1011.5;;;8.43;30
54459;BME280;40368;49.350;8.152;2024-01-10T02:55:46;1011.5;;;8.5;30.51
54459;BME280;40368;49.350;8.152;2024-01-10T02:56:46;1011.5;;;8.57;29.97
54459;BME280;40368;49.350;8.152;2024-01-10T02:57:46;1011.5;;;8.6;29.85
54459;BME280;40368;49.350;8.152;2024-01-10T02:58:46;1011.5;;;8.63;30.31
54459;BME280;40368;49.350;8.152;2024-01-10T02:59:46;1011.5;;;8.63;29.79
54459;BME280;40368;49.350;8.152;2024-01-10T03:00:46;1011.5;;;8.66;29.69
54459;BME280;40368;49.350;8.152;2024-01-10T03:01:47;1011.5;;;8.67;29.95
54459;BME280;40368;49.350;8.152;2024-01-10T03:02:46;1011.5;;;8.7;29.58
54459;BME280;40368;49.350;8.152;2024-01-10T03:03:46;1011.5;;;8.71;29.7
54459;BME280;40368;49.350;8.152;2024-01-10T03:04:47;1011.5;;;8.72;30.36
54459;BME280;40368;49.350;8.152;2024-01-10T03:05:46;1011.5;;;8.79;29.5
54459;BME280;40368;49.350;8.152;2024-01-10T03:06:46;1011.5;;;8.79;29.49
54459;BME280;40368;49.350;8.152;2024-01-10T03:07:46;1011.5;;;8.79;29.49
54459;BME280;40368;49.350;8.152;2024-01-10T03:08:47;1011.5;;;8.87;30.24
54459;BME280;40368;49.350;8.152;2024-01-10T03:09:47;1011.5;;;8.87;30.76
54459;BME280;40368;49.350;8.152;2024-01-10T03:10:45;1011.5;;;8.88;29.08
54459;BME280;40368;49.350;8.152;2024-01-10T03:11:46;1011.5;;;8.89;29.33
54459;BME280;40368;49.350;8.152;2024-01-10T03:12:46;1011.5;;;8.87;28.44
54459;BME280;40368;49.350;8.152;2024-01-10T03:13:46;1011.5;;;8.83;30
54459;BME280;40368;49.350;8.152;2024-01-10T03:14:46;1011.5;;;8.79;29.21
54459;BME280;40368;49.350;8.152;2024-01-10T03:15:46;1011.4;;;8.68;29.92
54459;BME280;40368;49.350;8.152;2024-01-10T03:16:46;1011.5;;;8.62;30.05
54459;BME280;40368;49.350;8.152;2024-01-10T03:17:46;1011.5;;;8.64;30.31
54459;BME280;40368;49.350;8.152;2024-01-10T03:18:46;1011.5;;;8.63;30.06
54459;BME280;40368;49.350;8.152;2024-01-10T03:19:46;1011.4;;;8.6;30.32
54459;BME280;40368;49.350;8.152;2024-01-10T03:20:46;1011.4;;;8.56;29.41
54459;BME280;40368;49.350;8.152;2024-01-10T03:21:46;1011.4;;;8.55;30.77
54459;BME280;40368;49.350;8.152;2024-01-10T03:22:46;1011.4;;;8.54;30.12
54459;BME280;40368;49.350;8.152;2024-01-10T03:23:46;1011.4;;;8.5;29.43
54459;BME280;40368;49.350;8.152;2024-01-10T03:24:46;1011.4;;;8.49;30.68
54459;BME280;40368;49.350;8.152;2024-01-10T03:25:46;1011.4;;;8.43;29.72
54459;BME280;40368;49.350;8.152;2024-01-10T03:26:47;1011.4;;;8.43;30.66
54459;BME280;40368;49.350;8.152;2024-01-10T03:27:46;1011.4;;;8.43;31.08
54459;BME280;40368;49.350;8.152;2024-01-10T03:28:46;1011.4;;;8.43;30.43
54459;BME280;40368;49.350;8.152;2024-01-10T03:29:46;1011.4;;;8.46;30.72
54459;BME280;40368;49.350;8.152;2024-01-10T03:30:46;1011.4;;;8.45;30.2
54459;BME280;40368;49.350;8.152;2024-01-10T03:31:46;1011.3;;;8.41;30.78
54459;BME280;40368;49.350;8.152;2024-01-10T03:32:47;1011.4;;;8.46;30.9
54459;BME280;40368;49.350;8.152;2024-01-10T03:33:47;1011.4;;;8.5;30.33
54459;BME280;40368;49.350;8.152;2024-01-10T03:34:46;1011.4;;;8.53;31.06
54459;BME280;40368;49.350;8.152;2024-01-10T03:35:46;1011.4;;;8.59;30.42
54459;BME280;40368;49.350;8.152;2024-01-10T03:36:46;1011.4;;;8.6;30.61
54459;BME280;40368;49.350;8.152;2024-01-10T03:37:46;1011.4;;;8.6;30.43
54459;BME280;40368;49.350;8.152;2024-01-10T03:38:51;1011.4;;;8.62;29.92
54459;BME280;40368;49.350;8.152;2024-01-10T03:39:47;1011.4;;;8.62;30.31
54459;BME280;40368;49.350;8.152;2024-01-10T03:40:46;1011.4;;;8.66;30.71
54459;BME280;40368;49.350;8.152;2024-01-10T03:41:46;1011.4;;;8.68;30.95
54459;BME280;40368;49.350;8.152;2024-01-10T03:42:46;1011.3;;;8.75;30.31
54459;BME280;40368;49.350;8.152;2024-01-10T03:43:46;1011.4;;;8.75;29.77
54459;BME280;40368;49.350;8.152;2024-01-10T03:44:46;1011.4;;;8.75;30.3
54459;BME280;40368;49.350;8.152;2024-01-10T03:45:46;1011.4;;;8.78;30.1
54459;BME280;40368;49.350;8.152;2024-01-10T03:46:46;1011.4;;;8.78;30.37
54459;BME280;40368;49.350;8.152;2024-01-10T03:47:46;1011.4;;;8.76;29.77
54459;BME280;40368;49.350;8.152;2024-01-10T03:48:46;1011.4;;;8.74;30.13
54459;BME280;40368;49.350;8.152;2024-01-10T03:49:47;1011.5;;;8.7;29.89
54459;BME280;40368;49.350;8.152;2024-01-10T03:50:46;1011.4;;;8.72;30.44
54459;BME280;40368;49.350;8.152;2024-01-10T03:51:46;1011.5;;;8.84;30.38
54459;BME280;40368;49.350;8.152;2024-01-10T03:52:47;1011.5;;;8.92;30.42
54459;BME280;40368;49.350;8.152;2024-01-10T03:53:46;1011.5;;;8.93;30.43
54459;BME280;40368;49.350;8.152;2024-01-10T03:54:46;1011.5;;;8.93;30.21
54459;BME280;40368;49.350;8.152;2024-01-10T03:55:46;1011.5;;;8.95;30.19
54459;BME280;40368;49.350;8.152;2024-01-10T03:56:46;1011.5;;;8.93;29.62
54459;BME280;40368;49.350;8.152;2024-01-10T03:57:46;1011.4;;;8.92;29.58
54459;BME280;40368;49.350;8.152;2024-01-10T03:58:46;1011.4;;;8.92;30.32
54459;BME280;40368;49.350;8.152;2024-01-10T03:59:47;1011.4;;;8.92;29.74
54459;BME280;40368;49.350;8.152;2024-01-10T04:00:46;1011.4;;;8.95;29.82
54459;BME280;40368;49.350;8.152;2024-01-10T04:01:47;1011.4;;;8.93;29.75
54459;BME280;40368;49.350;8.152;2024-01-10T04:02:47;1011.4;;;8.92;29.42
54459;BME280;40368;49.350;8.152;2024-01-10T04:03:46;1011.4;;;8.83;29.47
54459;BME280;40368;49.350;8.152;2024-01-10T04:04:46;1011.4;;;8.82;29.97
54459;BME280;40368;49.350;8.152;2024-01-10T04:05:46;1011.4;;;8.83;29.71
54459;BME280;40368;49.350;8.152;2024-01-10T04:06:46;1011.4;;;8.83;30.02
54459;BME280;40368;49.350;8.152;2024-01-10T04:07:46;1011.4;;;8.83;29.82
54459;BME280;40368;49.350;8.152;2024-01-10T04:08:46;1011.4;;;8.78;30.14
54459;BME280;40368;49.350;8.152;2024-01-10T04:09:46;1011.4;;;8.77;30.15
54459;BME280;40368;49.350;8.152;2024-01-10T04:10:46;1011.4;;;8.75;29.92
54459;BME280;40368;49.350;8.152;2024-01-10T04:11:46;1011.4;;;8.7;30.1
54459;BME280;40368;49.350;8.152;2024-01-10T04:12:46;1011.4;;;8.62;30.2
54459;BME280;40368;49.350;8.152;2024-01-10T04:13:46;1011.4;;;8.57;29.24
54459;BME280;40368;49.350;8.152;2024-01-10T04:14:46;1011.5;;;8.5;30.52
54459;BME280;40368;49.350;8.152;2024-01-10T04:15:46;1011.4;;;8.47;30.33
54459;BME280;40368;49.350;8.152;2024-01-10T04:16:46;1011.5;;;8.42;30.9
54459;BME280;40368;49.350;8.152;2024-01-10T04:17:46;1011.4;;;8.38;30.24
54459;BME280;40368;49.350;8.152;2024-01-10T04:18:46;1011.5;;;8.34;30.66
54459;BME280;40368;49.350;8.152;2024-01-10T04:19:46;1011.5;;;8.3;30.62
54459;BME280;40368;49.350;8.152;2024-01-10T04:20:46;1011.5;;;8.31;30.85
54459;BME280;40368;49.350;8.152;2024-01-10T04:21:46;1011.5;;;8.32;30.96
54459;BME280;40368;49.350;8.152;2024-01-10T04:22:46;1011.5;;;8.32;30.01
54459;BME280;40368;49.350;8.152;2024-01-10T04:23:46;1011.5;;;8.29;30.2
54459;BME280;40368;49.350;8.152;2024-01-10T04:24:46;1011.5;;;8.3;30.45
54459;BME280;40368;49.350;8.152;2024-01-10T04:25:46;1011.6;;;8.26;30.36
54459;BME280;40368;49.350;8.152;2024-01-10T04:26:46;1011.5;;;8.22;30.73
54459;BME280;40368;49.350;8.152;2024-01-10T04:27:46;1011.5;;;8.26;30.85
54459;BME280;40368;49.350;8.152;2024-01-10T04:28:46;1011.6;;;8.3;30.95
54459;BME280;40368;49.350;8.152;2024-01-10T04:29:46;1011.5;;;8.35;30.63
54459;BME280;40368;49.350;8.152;2024-01-10T04:30:46;1011.5;;;8.38;30.67
54459;BME280;40368;49.350;8.152;2024-01-10T04:31:46;1011.5;;;8.41;30.54
54459;BME280;40368;49.350;8.152;2024-01-10T04:32:46;1011.5;;;8.46;31.11
54459;BME280;40368;49.350;8.152;2024-01-10T04:33:46;1011.5;;;8.49;30.59
54459;BME280;40368;49.350;8.152;2024-01-10T04:34:46;1011.5;;;8.5;30.43
54459;BME280;40368;49.350;8.152;2024-01-10T04:35:46;1011.5;;;8.5;30.54
54459;BME280;40368;49.350;8.152;2024-01-10T04:36:46;1011.5;;;8.53;30.1
54459;BME280;40368;49.350;8.152;2024-01-10T04:37:46;1011.5;;;8.57;30.37
54459;BME280;40368;49.350;8.152;2024-01-10T04:38:46;1011.5;;;8.6;30.25
54459;BME280;40368;49.350;8.152;2024-01-10T04:39:47;1011.5;;;8.58;30.16
54459;BME280;40368;49.350;8.152;2024-01-10T04:40:46;1011.5;;;8.53;29.77
54459;BME280;40368;49.350;8.152;2024-01-10T04:41:46;1011.5;;;8.55;30.38
54459;BME280;40368;49.350;8.152;2024-01-10T04:42:46;1011.5;;;8.55;30.09
54459;BME280;40368;49.350;8.152;2024-01-10T04:43:46;1011.5;;;8.56;30.46
54459;BME280;40368;49.350;8.152;2024-01-10T04:44:47;1011.6;;;8.58;30.37
54459;BME280;40368;49.350;8.152;2024-01-10T04:45:46;1011.6;;;8.6;30
54459;BME280;40368;49.350;8.152;2024-01-10T04:46:46;1011.5;;;8.63;30.16
54459;BME280;40368;49.350;8.152;2024-01-10T04:47:46;1011.6;;;8.67;30.23
54459;BME280;40368;49.350;8.152;2024-01-10T04:48:46;1011.6;;;8.68;30.25
54459;BME280;40368;49.350;8.152;2024-01-10T04:49:46;1011.6;;;8.68;30.45
54459;BME280;40368;49.350;8.152;2024-01-10T04:50:46;1011.6;;;8.71;30.61
54459;BME280;40368;49.350;8.152;2024-01-10T04:51:47;1011.5;;;8.7;29.45
54459;BME280;40368;49.350;8.152;2024-01-10T04:52:46;1011.5;;;8.68;30.27
54459;BME280;40368;49.350;8.152;2024-01-10T04:53:46;1011.6;;;8.68;30.26
54459;BME280;40368;49.350;8.152;2024-01-10T04:54:46;1011.5;;;8.7;30.46
54459;BME280;40368;49.350;8.152;2024-01-10T04:55:46;1011.5;;;8.71;30.26
54459;BME280;40368;49.350;8.152;2024-01-10T04:56:46;1011.5;;;8.71;30.33
54459;BME280;40368;49.350;8.152;2024-01-10T04:57:46;1011.5;;;8.68;30.21
54459;BME280;40368;49.350;8.152;2024-01-10T04:58:46;1011.5;;;8.68;30.86
54459;BME280;40368;49.350;8.152;2024-01-10T04:59:46;1011.5;;;8.63;30.84
54459;BME280;40368;49.350;8.152;2024-01-10T05:00:46;1011.5;;;8.6;30.18
54459;BME280;40368;49.350;8.152;2024-01-10T05:01:46;1011.5;;;8.54;30.76
54459;BME280;40368;49.350;8.152;2024-01-10T05:02:46;1011.6;;;8.51;30.92
54459;BME280;40368;49.350;8.152;2024-01-10T05:03:46;1011.5;;;8.45;30.91
54459;BME280;40368;49.350;8.152;2024-01-10T05:04:46;1011.5;;;8.38;31.14
54459;BME280;40368;49.350;8.152;2024-01-10T05:05:46;1011.5;;;8.33;30.85
54459;BME280;40368;49.350;8.152;2024-01-10T05:06:47;1011.5;;;8.27;30.83
54459;BME280;40368;49.350;8.152;2024-01-10T05:07:46;1011.5;;;8.24;30.81
54459;BME280;40368;49.350;8.152;2024-01-10T05:08:47;1011.5;;;8.21;31.44
54459;BME280;40368;49.350;8.152;2024-01-10T05:09:46;1011.5;;;8.2;31.24
54459;BME280;40368;49.350;8.152;2024-01-10T05:10:46;1011.5;;;8.2;30.83
54459;BME280;40368;49.350;8.152;2024-01-10T05:11:46;1011.5;;;8.18;31.24
54459;BME280;40368;49.350;8.152;2024-01-10T05:12:46;1011.5;;;8.2;30.89
54459;BME280;40368;49.350;8.152;2024-01-10T05:13:46;1011.5;;;8.22;30.97
54459;BME280;40368;49.350;8.152;2024-01-10T05:14:46;1011.5;;;8.24;30.9
54459;BME280;40368;49.350;8.152;2024-01-10T05:15:47;1011.5;;;8.25;30.7
54459;BME280;40368;49.350;8.152;2024-01-10T05:16:46;1011.5;;;8.29;31.2
54459;BME280;40368;49.350;8.152;2024-01-10T05:17:46;1011.5;;;8.35;31.03
54459;BME280;40368;49.350;8.152;2024-01-10T05:18:46;1011.5;;;8.41;30.91
54459;BME280;40368;49.350;8.152;2024-01-10T05:19:46;1011.5;;;8.45;30.97
54459;BME280;40368;49.350;8.152;2024-01-10T05:20:46;1011.5;;;8.49;30.84
54459;BME280;40368;49.350;8.152;2024-01-10T05:21:46;1011.5;;;8.5;30.38
54459;BME280;40368;49.350;8.152;2024-01-10T05:22:46;1011.5;;;8.5;30.86
54459;BME280;40368;49.350;8.152;2024-01-10T05:23:46;1011.5;;;8.5;30.41
54459;BME280;40368;49.350;8.152;2024-01-10T05:24:46;1011.5;;;8.5;30.75
54459;BME280;40368;49.350;8.152;2024-01-10T05:25:46;1011.5;;;8.53;31.11
54459;BME280;40368;49.350;8.152;2024-01-10T05:26:46;1011.4;;;8.56;30.54
54459;BME280;40368;49.350;8.152;2024-01-10T05:27:46;1011.4;;;8.56;30.9
54459;BME280;40368;49.350;8.152;2024-01-10T05:28:46;1011.4;;;8.57;30.8
54459;BME280;40368;49.350;8.152;2024-01-10T05:29:46;1011.4;;;8.57;30.45
54459;BME280;40368;49.350;8.152;2024-01-10T05:30:46;1011.4;;;8.6;30.92
54459;BME280;40368;49.350;8.152;2024-01-10T05:31:46;1011.4;;;8.62;30.61
54459;BME280;40368;49.350;8.152;2024-01-10T05:32:46;1011.5;;;8.63;30.78
54459;BME280;40368;49.350;8.152;2024-01-10T05:33:46;1011.4;;;8.64;30.59
54459;BME280;40368;49.350;8.152;2024-01-10T05:34:46;1011.4;;;8.63;30.36
54459;BME280;40368;49.350;8.152;2024-01-10T05:35:46;1011.5;;;8.6;30.54